Time;durP1;ratioP1;P1;durP2;ratioP2;P2;SDS_P1;SDS_P2;PMS_P1;PMS_P2;Temp;Humidity;BMP_temperature;BMP_pressure;BME280_temperature;BME280_humidity;BME280_pressure;Samples;Min_cycle;Max_cycle;Signal;HPM_P1;HPM_P2
2022/11/29 00:01:20;;;;;;;;;;;13.30;63.00;;;;;;5012433;28;20597;-88
2022/11/29 00:03:46;;;;;;;;;;;13.30;63.00;;;;;;5032934;28;19991;-88
2022/11/29 00:06:19;;;;;;;;;;;13.30;62.90;;;;;;5030102;28;19921;-88
2022/11/29 00:08:45;;;;;;;;;;;13.30;62.90;;;;;;5030730;28;19951;-89
2022/11/29 00:11:11;;;;;;;;;;;13.30;63.00;;;;;;5030771;28;19953;-87
2022/11/29 00:13:37;;;;;;;;;;;13.30;62.90;;;;;;5029408;28;20506;-87
2022/11/29 00:16:08;;;;;;;;;;;13.30;63.00;;;;;;5029692;28;19960;-89
2022/11/29 00:18:33;;;;;;;;;;;13.30;63.00;;;;;;5026746;28;19925;-88
2022/11/29 00:20:59;;;;;;;;;;;13.20;63.10;;;;;;5031084;28;19924;-90
2022/11/29 00:23:24;;;;;;;;;;;13.20;63.10;;;;;;5017393;28;20546;-88
2022/11/29 00:25:50;;;;;;;;;;;13.20;63.00;;;;;;5019480;28;20271;-89
2022/11/29 00:28:16;;;;;;;;;;;13.10;63.10;;;;;;5009851;28;19913;-89
2022/11/29 00:30:41;;;;;;;;;;;13.10;63.10;;;;;;5017649;28;19975;-90
2022/11/29 00:33:07;;;;;;;;;;;13.00;63.10;;;;;;5016234;28;19920;-88
2022/11/29 00:35:32;;;;;;;;;;;13.10;63.20;;;;;;5012769;28;20335;-89
2022/11/29 00:37:58;;;;;;;;;;;13.00;63.20;;;;;;5014096;28;19917;-91
2022/11/29 00:40:23;;;;;;;;;;;13.00;63.20;;;;;;5030252;28;19919;-90
2022/11/29 00:42:49;;;;;;;;;;;13.10;63.30;;;;;;5015173;28;20737;-89
2022/11/29 00:45:14;;;;;;;;;;;13.00;63.30;;;;;;5029104;28;19952;-89
2022/11/29 00:47:40;;;;;;;;;;;13.00;63.20;;;;;;5016508;28;19975;-89
2022/11/29 00:50:06;;;;;;;;;;;13.00;63.30;;;;;;5012547;28;19921;-89
2022/11/29 00:52:32;;;;;;;;;;;13.00;63.20;;;;;;5012186;28;19917;-88
2022/11/29 00:54:57;;;;;;;;;;;13.00;63.40;;;;;;5031235;28;19917;-87
2022/11/29 00:57:23;;;;;;;;;;;13.00;63.40;;;;;;5013393;28;19921;-89
2022/11/29 00:59:49;;;;;;;;;;;13.00;63.30;;;;;;5030293;28;20009;-88
2022/11/29 01:02:14;;;;;;;;;;;13.00;63.30;;;;;;5013065;28;20417;-90
2022/11/29 01:04:40;;;;;;;;;;;13.00;63.30;;;;;;5030351;28;20011;-90
2022/11/29 01:07:06;;;;;;;;;;;13.00;63.30;;;;;;5011961;28;19924;-88
2022/11/29 01:09:31;;;;;;;;;;;13.00;63.30;;;;;;5013195;28;19948;-89
2022/11/29 01:11:58;;;;;;;;;;;13.10;63.40;;;;;;5030404;28;19955;-91
2022/11/29 01:14:23;;;;;;;;;;;13.10;63.40;;;;;;5034817;28;19909;-89
2022/11/29 01:16:49;;;;;;;;;;;13.10;63.50;;;;;;5029705;28;19917;-89
2022/11/29 01:19:14;;;;;;;;;;;13.10;63.40;;;;;;5031477;28;19928;-89
2022/11/29 01:21:40;;;;;;;;;;;13.20;63.40;;;;;;5030907;28;19921;-90
2022/11/29 01:24:09;;;;;;;;;;;13.20;63.40;;;;;;5013407;28;19912;-88
2022/11/29 01:26:34;;;;;;;;;;;13.20;63.40;;;;;;5011236;28;19940;-88
2022/11/29 01:29:00;;;;;;;;;;;13.30;63.30;;;;;;5012669;28;20287;-89
2022/11/29 01:31:30;;;;;;;;;;;13.20;63.20;;;;;;5012621;28;20411;-89
2022/11/29 01:33:57;;;;;;;;;;;13.20;63.00;;;;;;5018266;28;19913;-91
2022/11/29 01:36:22;;;;;;;;;;;13.20;63.00;;;;;;5016287;28;19917;-90
2022/11/29 01:38:48;;;;;;;;;;;13.20;63.00;;;;;;5015290;28;20344;-89
2022/11/29 01:41:15;;;;;;;;;;;13.20;63.10;;;;;;5038513;28;19917;-89
2022/11/29 01:44:00;;;;;;;;;;;13.20;63.20;;;;;;5016643;28;19913;-89
2022/11/29 01:46:28;;;;;;;;;;;13.20;63.30;;;;;;5016487;28;19925;-90
2022/11/29 01:48:56;;;;;;;;;;;13.20;63.30;;;;;;5033931;28;19948;-87
2022/11/29 01:51:22;;;;;;;;;;;13.20;63.30;;;;;;5002599;28;19996;-90
2022/11/29 01:53:48;;;;;;;;;;;13.20;63.30;;;;;;5026277;28;19917;-89
2022/11/29 01:56:14;;;;;;;;;;;13.20;63.30;;;;;;5016259;28;20041;-91
2022/11/29 01:58:43;;;;;;;;;;;13.30;63.30;;;;;;5033593;28;19913;-90
2022/11/29 02:01:09;;;;;;;;;;;13.30;63.30;;;;;;5015884;28;19917;-89
2022/11/29 02:03:35;;;;;;;;;;;13.30;63.30;;;;;;5015857;28;19913;-89
2022/11/29 02:06:02;;;;;;;;;;;13.30;63.40;;;;;;5035517;28;19932;-90
2022/11/29 02:08:34;;;;;;;;;;;13.30;63.40;;;;;;5032844;28;20279;-89
2022/11/29 02:11:03;;;;;;;;;;;13.30;63.40;;;;;;5014879;28;19929;-89
2022/11/29 02:13:36;;;;;;;;;;;13.30;63.40;;;;;;5015364;28;19969;-89
2022/11/29 02:16:07;;;;;;;;;;;13.30;63.40;;;;;;5034223;28;19916;-90
2022/11/29 02:18:53;;;;;;;;;;;13.30;63.30;;;;;;5015611;28;20023;-89
2022/11/29 02:21:26;;;;;;;;;;;13.30;63.40;;;;;;5029367;28;19922;-91
2022/11/29 02:24:02;;;;;;;;;;;13.30;63.40;;;;;;5025750;28;19948;-90
2022/11/29 02:26:34;;;;;;;;;;;13.40;63.40;;;;;;5016098;28;20312;-89
2022/11/29 02:29:02;;;;;;;;;;;13.40;63.30;;;;;;5013341;28;19919;-89
2022/11/29 02:31:47;;;;;;;;;;;13.40;63.30;;;;;;4995370;28;19925;-89
2022/11/29 02:34:35;;;;;;;;;;;13.40;63.30;;;;;;5015983;28;19909;-90
2022/11/29 02:37:16;;;;;;;;;;;13.40;63.40;;;;;;5032712;28;19924;-90
2022/11/29 02:39:51;;;;;;;;;;;13.40;63.40;;;;;;5032208;28;20436;-89
2022/11/29 02:42:47;;;;;;;;;;;13.40;63.40;;;;;;5033027;28;20392;-89
2022/11/29 02:45:22;;;;;;;;;;;13.50;63.40;;;;;;5013582;28;19964;-88
2022/11/29 02:47:58;;;;;;;;;;;13.50;63.20;;;;;;5032887;28;19909;-90
2022/11/29 02:50:42;;;;;;;;;;;13.50;63.00;;;;;;5032394;28;19928;-89
2022/11/29 02:53:08;;;;;;;;;;;13.50;62.90;;;;;;5015729;28;20524;-89
2022/11/29 02:55:40;;;;;;;;;;;13.50;62.90;;;;;;5033589;28;20000;-88
2022/11/29 02:58:14;;;;;;;;;;;13.40;62.80;;;;;;5024572;28;20016;-89
2022/11/29 03:00:43;;;;;;;;;;;13.40;62.90;;;;;;5032583;28;19921;-88
2022/11/29 03:03:18;;;;;;;;;;;13.40;62.90;;;;;;5033531;28;20000;-88
2022/11/29 03:05:51;;;;;;;;;;;13.40;62.90;;;;;;5032384;28;20012;-89
2022/11/29 03:08:24;;;;;;;;;;;13.40;63.10;;;;;;5014594;28;19909;-88
2022/11/29 03:11:08;;;;;;;;;;;13.40;63.10;;;;;;5032540;28;20682;-88
2022/11/29 03:13:40;;;;;;;;;;;13.40;63.00;;;;;;5014047;28;19909;-89
2022/11/29 03:16:08;;;;;;;;;;;13.30;63.20;;;;;;5013285;28;19917;-90
2022/11/29 03:18:57;;;;;;;;;;;13.40;63.20;;;;;;5033381;28;19913;-88
2022/11/29 03:21:43;;;;;;;;;;;13.40;63.20;;;;;;4995377;28;19918;-90
2022/11/29 03:24:14;;;;;;;;;;;13.40;63.10;;;;;;5013246;28;19944;-88
2022/11/29 03:26:54;;;;;;;;;;;13.40;63.20;;;;;;5031902;28;19917;-90
2022/11/29 03:29:25;;;;;;;;;;;13.30;63.00;;;;;;5013516;28;19968;-88
2022/11/29 03:31:51;;;;;;;;;;;13.30;63.10;;;;;;4994984;28;19922;-90
2022/11/29 03:34:28;;;;;;;;;;;13.30;63.20;;;;;;5016106;28;20193;-90
2022/11/29 03:36:54;;;;;;;;;;;13.30;63.20;;;;;;5035364;28;19921;-91
2022/11/29 03:39:26;;;;;;;;;;;13.30;63.30;;;;;;5025612;28;19913;-90
2022/11/29 03:41:57;;;;;;;;;;;13.30;63.20;;;;;;5031148;28;19921;-89
2022/11/29 03:44:25;;;;;;;;;;;13.30;63.20;;;;;;5012675;28;19913;-88
2022/11/29 03:46:50;;;;;;;;;;;13.40;63.20;;;;;;5012730;28;19929;-89
2022/11/29 03:49:25;;;;;;;;;;;13.40;63.10;;;;;;5012365;28;19920;-89
2022/11/29 03:52:05;;;;;;;;;;;13.40;63.10;;;;;;5030903;28;19928;-91
2022/11/29 03:54:36;;;;;;;;;;;13.40;63.10;;;;;;5023970;28;19968;-90
2022/11/29 03:57:02;;;;;;;;;;;13.40;63.10;;;;;;5012152;28;20299;-88
2022/11/29 03:59:40;;;;;;;;;;;13.40;63.10;;;;;;5013354;28;20342;-90
2022/11/29 04:02:05;;;;;;;;;;;13.40;63.20;;;;;;5030259;28;20015;-90
2022/11/29 04:04:31;;;;;;;;;;;13.40;63.10;;;;;;5012739;28;20351;-90
2022/11/29 04:07:13;;;;;;;;;;;13.40;63.10;;;;;;5017119;28;19964;-90
2022/11/29 04:09:44;;;;;;;;;;;13.40;63.00;;;;;;5029569;28;20297;-88
2022/11/29 04:12:30;;;;;;;;;;;13.40;62.90;;;;;;5012481;28;19917;-90
2022/11/29 04:15:13;;;;;;;;;;;13.40;63.00;;;;;;5008185;28;20411;-89
2022/11/29 04:17:54;;;;;;;;;;;13.40;62.90;;;;;;5013351;28;19921;-88
2022/11/29 04:20:43;;;;;;;;;;;13.30;63.10;;;;;;5030107;28;20387;-89
2022/11/29 04:23:09;;;;;;;;;;;13.40;63.30;;;;;;5013176;28;19920;-89
2022/11/29 04:25:50;;;;;;;;;;;13.30;63.30;;;;;;5012432;28;19925;-88
2022/11/29 04:28:16;;;;;;;;;;;13.30;63.20;;;;;;5011658;28;19913;-89
2022/11/29 04:30:44;;;;;;;;;;;13.30;63.20;;;;;;5012545;28;19925;-88
2022/11/29 04:33:29;;;;;;;;;;;13.40;63.30;;;;;;5029806;28;19913;-90
2022/11/29 04:36:02;;;;;;;;;;;13.30;63.20;;;;;;5016590;28;19928;-88
2022/11/29 04:38:47;;;;;;;;;;;13.30;63.20;;;;;;5011625;28;20446;-89
2022/11/29 04:41:31;;;;;;;;;;;13.40;63.30;;;;;;5012397;28;20019;-89
2022/11/29 04:44:26;;;;;;;;;;;13.40;63.30;;;;;;5029848;28;19914;-90
2022/11/29 04:46:51;;;;;;;;;;;13.40;63.30;;;;;;5010820;28;19917;-89
2022/11/29 04:49:36;;;;;;;;;;;13.40;63.30;;;;;;5002936;28;19979;-89
2022/11/29 04:52:22;;;;;;;;;;;13.40;63.30;;;;;;5030055;28;19929;-88
2022/11/29 04:55:06;;;;;;;;;;;13.40;63.40;;;;;;5033321;28;19939;-89
2022/11/29 04:57:51;;;;;;;;;;;13.40;63.40;;;;;;5012788;28;20329;-89
2022/11/29 05:00:21;;;;;;;;;;;13.40;63.30;;;;;;5008290;28;19910;-90
2022/11/29 05:02:55;;;;;;;;;;;13.50;63.30;;;;;;4993283;28;19910;-88
2022/11/29 05:05:39;;;;;;;;;;;13.50;63.30;;;;;;4991607;28;20210;-89
2022/11/29 05:08:21;;;;;;;;;;;13.50;63.30;;;;;;5010015;28;19921;-90
2022/11/29 05:10:46;;;;;;;;;;;13.50;63.30;;;;;;5012151;28;19925;-89
2022/11/29 05:13:21;;;;;;;;;;;13.50;63.20;;;;;;4992709;28;19917;-88
2022/11/29 05:16:06;;;;;;;;;;;13.50;63.10;;;;;;5010730;28;20061;-90
2022/11/29 05:18:34;;;;;;;;;;;13.50;63.20;;;;;;4992928;28;20361;-88
2022/11/29 05:21:16;;;;;;;;;;;13.60;63.10;;;;;;5010680;28;19917;-89
2022/11/29 05:23:42;;;;;;;;;;;13.60;63.20;;;;;;4992859;28;20435;-88
2022/11/29 05:26:12;;;;;;;;;;;13.60;63.20;;;;;;4993020;28;20000;-90
2022/11/29 05:28:52;;;;;;;;;;;13.70;63.10;;;;;;4993011;28;19909;-90
2022/11/29 05:31:31;;;;;;;;;;;13.70;63.00;;;;;;4992247;28;20032;-88
2022/11/29 05:33:56;;;;;;;;;;;13.70;63.00;;;;;;5009170;28;19952;-90
2022/11/29 05:36:22;;;;;;;;;;;13.70;63.10;;;;;;5033427;28;19917;-91
2022/11/29 05:39:06;;;;;;;;;;;13.70;63.10;;;;;;5029715;28;20272;-88
2022/11/29 05:41:42;;;;;;;;;;;13.70;63.00;;;;;;5011869;28;19918;-89
2022/11/29 05:44:11;;;;;;;;;;;13.70;63.10;;;;;;5029397;28;19917;-89
2022/11/29 05:46:56;;;;;;;;;;;13.60;63.00;;;;;;5013235;28;20353;-89
2022/11/29 05:49:32;;;;;;;;;;;13.60;62.90;;;;;;5004845;28;19949;-89
2022/11/29 05:52:20;;;;;;;;;;;13.60;62.80;;;;;;5015941;28;19931;-90
2022/11/29 05:54:56;;;;;;;;;;;13.50;62.70;;;;;;5011939;28;20327;-90
2022/11/29 05:57:28;;;;;;;;;;;13.50;62.90;;;;;;5021410;28;19917;-90
2022/11/29 05:59:55;;;;;;;;;;;13.40;62.90;;;;;;4992474;28;19916;-89
2022/11/29 06:02:28;;;;;;;;;;;13.40;63.10;;;;;;5005214;28;20060;-88
2022/11/29 06:05:03;;;;;;;;;;;13.30;63.00;;;;;;5012233;28;19910;-89
2022/11/29 06:07:35;;;;;;;;;;;13.40;63.00;;;;;;5011781;28;20493;-91
2022/11/29 06:10:16;;;;;;;;;;;13.40;63.10;;;;;;5029154;28;20267;-88
2022/11/29 06:12:47;;;;;;;;;;;13.40;63.00;;;;;;5008984;28;19917;-88
2022/11/29 06:15:31;;;;;;;;;;;13.40;63.00;;;;;;5009358;28;19948;-90
2022/11/29 06:18:05;;;;;;;;;;;13.40;63.00;;;;;;5011409;28;19921;-90
2022/11/29 06:20:41;;;;;;;;;;;13.40;63.00;;;;;;5032484;28;20311;-88
2022/11/29 06:23:09;;;;;;;;;;;13.50;63.10;;;;;;5015751;28;19957;-89
2022/11/29 06:25:36;;;;;;;;;;;13.50;63.10;;;;;;5015173;28;19928;-89
2022/11/29 06:28:08;;;;;;;;;;;13.50;63.20;;;;;;5016627;28;19916;-89
2022/11/29 06:30:46;;;;;;;;;;;13.50;63.10;;;;;;5014998;28;19925;-88
2022/11/29 06:33:17;;;;;;;;;;;13.50;62.90;;;;;;5017575;28;19909;-90
2022/11/29 06:35:47;;;;;;;;;;;13.60;62.90;;;;;;5034881;28;20322;-88
2022/11/29 06:38:16;;;;;;;;;;;13.50;62.90;;;;;;5038245;28;20342;-89
2022/11/29 06:40:42;;;;;;;;;;;13.60;63.00;;;;;;5031992;28;19917;-88
2022/11/29 06:43:08;;;;;;;;;;;13.70;62.90;;;;;;5014535;28;19909;-89
2022/11/29 06:45:34;;;;;;;;;;;13.70;62.90;;;;;;5014862;28;19928;-90
2022/11/29 06:48:04;;;;;;;;;;;13.70;62.80;;;;;;5015101;28;19913;-90
2022/11/29 06:50:38;;;;;;;;;;;13.70;62.80;;;;;;5015043;28;19926;-89
2022/11/29 06:53:18;;;;;;;;;;;13.70;62.70;;;;;;5014751;28;19921;-88
2022/11/29 06:55:50;;;;;;;;;;;13.70;62.70;;;;;;5032420;28;20630;-89
2022/11/29 06:58:35;;;;;;;;;;;13.70;62.80;;;;;;5032288;28;19963;-90
2022/11/29 07:01:19;;;;;;;;;;;13.70;62.70;;;;;;5013946;28;20547;-89
2022/11/29 07:03:44;;;;;;;;;;;13.70;62.70;;;;;;5014085;28;19992;-89
2022/11/29 07:06:17;;;;;;;;;;;13.70;62.80;;;;;;5014957;28;19952;-90
2022/11/29 07:08:43;;;;;;;;;;;13.70;62.80;;;;;;5013407;28;19917;-91
2022/11/29 07:11:11;;;;;;;;;;;13.70;62.90;;;;;;5031335;28;20041;-89
2022/11/29 07:13:37;;;;;;;;;;;13.80;63.00;;;;;;5013816;28;20071;-89
2022/11/29 07:16:23;;;;;;;;;;;13.70;63.00;;;;;;5031798;28;19988;-90
2022/11/29 07:18:56;;;;;;;;;;;13.70;62.90;;;;;;5004075;28;19979;-90
2022/11/29 07:21:37;;;;;;;;;;;13.70;62.90;;;;;;4994987;28;20000;-89
2022/11/29 07:24:15;;;;;;;;;;;13.60;63.00;;;;;;5012153;28;19914;-89
2022/11/29 07:26:45;;;;;;;;;;;13.50;63.10;;;;;;5011719;28;19968;-89
2022/11/29 07:29:10;;;;;;;;;;;13.50;63.10;;;;;;5019037;28;20387;-89
2022/11/29 07:31:39;;;;;;;;;;;13.60;63.10;;;;;;5039360;28;19924;-90
2022/11/29 07:34:13;;;;;;;;;;;13.60;63.10;;;;;;5051430;28;19920;-89
2022/11/29 07:36:39;;;;;;;;;;;13.60;63.10;;;;;;5033218;28;19924;-89
2022/11/29 07:39:25;;;;;;;;;;;13.70;63.00;;;;;;5054329;28;20376;-88
2022/11/29 07:42:09;;;;;;;;;;;13.70;63.00;;;;;;5032737;28;19921;-90
2022/11/29 07:44:39;;;;;;;;;;;13.80;63.00;;;;;;5024486;28;19924;-89
2022/11/29 07:47:05;;;;;;;;;;;13.80;63.10;;;;;;5013109;28;20261;-90
2022/11/29 07:49:31;;;;;;;;;;;13.80;63.10;;;;;;5012946;28;20332;-90
2022/11/29 07:51:56;;;;;;;;;;;13.80;63.10;;;;;;5031101;28;19929;-89
2022/11/29 07:54:22;;;;;;;;;;;13.80;63.00;;;;;;5030233;28;19917;-88
2022/11/29 07:56:48;;;;;;;;;;;13.80;63.00;;;;;;5011546;28;19960;-88
2022/11/29 07:59:14;;;;;;;;;;;13.80;63.00;;;;;;5012577;28;20007;-89
2022/11/29 08:01:40;;;;;;;;;;;13.80;62.90;;;;;;5029707;28;19923;-89
2022/11/29 08:04:07;;;;;;;;;;;13.80;62.80;;;;;;5011787;28;19992;-88
2022/11/29 08:06:32;;;;;;;;;;;13.80;63.00;;;;;;5017566;28;19917;-88
2022/11/29 08:08:58;;;;;;;;;;;13.80;63.10;;;;;;5011874;28;20336;-88
2022/11/29 08:11:24;;;;;;;;;;;13.80;63.10;;;;;;5008536;28;19929;-89
2022/11/29 08:13:54;;;;;;;;;;;13.80;63.20;;;;;;5011842;28;20700;-90
2022/11/29 08:16:21;;;;;;;;;;;13.90;63.20;;;;;;5026680;28;20796;-88
2022/11/29 08:18:46;;;;;;;;;;;13.90;63.20;;;;;;5008616;28;19932;-89
2022/11/29 08:21:16;;;;;;;;;;;14.00;63.10;;;;;;5008163;28;19921;-90
2022/11/29 08:23:50;;;;;;;;;;;14.00;63.10;;;;;;5003947;28;19953;-89
2022/11/29 08:26:16;;;;;;;;;;;14.00;63.20;;;;;;5008448;28;19917;-89
2022/11/29 08:28:42;;;;;;;;;;;14.00;63.20;;;;;;5009116;28;19921;-88
2022/11/29 08:31:09;;;;;;;;;;;14.10;63.30;;;;;;5007492;28;19995;-89
2022/11/29 08:33:36;;;;;;;;;;;14.10;63.30;;;;;;5010326;28;19961;-89
2022/11/29 08:36:18;;;;;;;;;;;14.20;63.30;;;;;;5027202;28;20027;-89
2022/11/29 08:38:44;;;;;;;;;;;14.20;63.30;;;;;;5016784;28;19925;-89
2022/11/29 08:41:14;;;;;;;;;;;14.20;63.30;;;;;;5025445;28;19924;-89
2022/11/29 08:43:40;;;;;;;;;;;14.20;63.30;;;;;;5008456;28;19921;-89
2022/11/29 08:46:10;;;;;;;;;;;14.20;63.40;;;;;;5027070;28;19968;-87
2022/11/29 08:48:36;;;;;;;;;;;14.30;63.40;;;;;;5009653;28;20386;-88
2022/11/29 08:51:02;;;;;;;;;;;14.30;63.50;;;;;;5026604;28;19925;-90
2022/11/29 08:53:44;;;;;;;;;;;14.30;63.50;;;;;;5003116;28;19926;-89
2022/11/29 08:56:14;;;;;;;;;;;14.40;63.30;;;;;;5006935;28;19917;-88
2022/11/29 08:58:40;;;;;;;;;;;14.40;63.20;;;;;;5013043;28;20020;-89
2022/11/29 09:01:17;;;;;;;;;;;14.40;63.20;;;;;;5024605;28;20011;-88
2022/11/29 09:03:58;;;;;;;;;;;14.40;63.30;;;;;;5029701;28;19963;-89
2022/11/29 09:06:26;;;;;;;;;;;14.40;63.40;;;;;;5015627;28;19984;-88
2022/11/29 09:08:53;;;;;;;;;;;14.40;63.60;;;;;;5010268;28;19921;-89
2022/11/29 09:11:21;;;;;;;;;;;14.50;63.60;;;;;;5027795;28;19999;-90
2022/11/29 09:13:48;;;;;;;;;;;14.50;63.70;;;;;;5009837;28;19921;-90
2022/11/29 09:16:16;;;;;;;;;;;14.50;63.70;;;;;;5029001;28;19920;-88
2022/11/29 09:18:47;;;;;;;;;;;14.60;63.70;;;;;;5010140;28;19958;-90
2022/11/29 09:21:17;;;;;;;;;;;14.70;63.70;;;;;;5028643;28;20026;-89
2022/11/29 09:23:43;;;;;;;;;;;14.70;63.70;;;;;;5009372;28;19921;-88
2022/11/29 09:26:09;;;;;;;;;;;14.80;63.80;;;;;;5029054;28;19917;-90
2022/11/29 09:28:35;;;;;;;;;;;14.90;63.70;;;;;;5030142;28;19925;-89
2022/11/29 09:31:05;;;;;;;;;;;15.00;63.70;;;;;;5009661;28;19928;-88
2022/11/29 09:33:30;;;;;;;;;;;15.00;63.70;;;;;;5014417;28;19920;-89
2022/11/29 09:35:56;;;;;;;;;;;15.10;63.80;;;;;;5049655;28;20374;-89
2022/11/29 09:38:22;;;;;;;;;;;15.10;63.60;;;;;;5032076;28;20376;-88
2022/11/29 09:40:52;;;;;;;;;;;15.10;63.80;;;;;;5048473;28;19913;-87
2022/11/29 09:43:20;;;;;;;;;;;15.20;63.60;;;;;;5045899;28;19921;-88
2022/11/29 09:45:49;;;;;;;;;;;15.20;63.70;;;;;;5029599;28;20007;-87
2022/11/29 09:48:26;;;;;;;;;;;15.20;63.70;;;;;;5047254;28;19920;-88
2022/11/29 09:51:10;;;;;;;;;;;15.20;63.60;;;;;;5028772;28;20018;-90
2022/11/29 09:53:47;;;;;;;;;;;15.20;63.50;;;;;;5031293;28;19967;-88
2022/11/29 09:56:16;;;;;;;;;;;15.20;63.40;;;;;;5032939;28;19920;-89
2022/11/29 09:58:58;;;;;;;;;;;15.20;63.50;;;;;;5033159;28;20639;-90
2022/11/29 10:01:27;;;;;;;;;;;15.30;63.40;;;;;;5052273;28;19913;-91
2022/11/29 10:03:54;;;;;;;;;;;15.30;63.40;;;;;;5034499;28;19928;-89
2022/11/29 10:06:23;;;;;;;;;;;15.30;63.40;;;;;;5038434;28;19917;-90
2022/11/29 10:08:51;;;;;;;;;;;15.40;63.40;;;;;;5031657;28;19921;-90
2022/11/29 10:11:22;;;;;;;;;;;15.30;63.50;;;;;;5032119;28;20059;-90
2022/11/29 10:13:51;;;;;;;;;;;15.30;63.60;;;;;;5011236;28;19952;-88
2022/11/29 10:16:24;;;;;;;;;;;15.40;63.60;;;;;;5012256;28;20364;-88
2022/11/29 10:19:03;;;;;;;;;;;15.40;63.70;;;;;;5014312;28;19921;-88
2022/11/29 10:21:33;;;;;;;;;;;15.40;63.80;;;;;;5031702;28;19913;-89
2022/11/29 10:24:03;;;;;;;;;;;15.40;64.00;;;;;;5031426;28;19972;-87
2022/11/29 10:26:30;;;;;;;;;;;15.50;64.20;;;;;;5031950;28;19920;-89
2022/11/29 10:28:56;;;;;;;;;;;15.50;64.20;;;;;;5030907;28;20024;-88
2022/11/29 10:31:31;;;;;;;;;;;15.60;64.20;;;;;;5012068;28;19921;-89
2022/11/29 10:33:58;;;;;;;;;;;15.70;64.20;;;;;;5039151;28;20351;-90
2022/11/29 10:36:38;;;;;;;;;;;15.70;64.10;;;;;;5034245;28;19917;-91
2022/11/29 10:39:05;;;;;;;;;;;15.80;64.20;;;;;;5052681;28;20398;-90
2022/11/29 10:41:32;;;;;;;;;;;15.80;64.20;;;;;;5035640;28;19913;-91
2022/11/29 10:43:58;;;;;;;;;;;15.80;64.20;;;;;;5051993;28;20299;-89
2022/11/29 10:46:29;;;;;;;;;;;15.90;64.30;;;;;;5014784;28;19922;-91
2022/11/29 10:48:56;;;;;;;;;;;16.00;64.30;;;;;;5031499;28;20135;-90
2022/11/29 10:51:22;;;;;;;;;;;16.00;64.30;;;;;;5013040;28;19929;-88
2022/11/29 10:53:48;;;;;;;;;;;16.10;64.20;;;;;;5012150;28;20034;-89
2022/11/29 10:56:14;;;;;;;;;;;16.10;64.20;;;;;;5030051;28;20371;-91
2022/11/29 10:58:53;;;;;;;;;;;16.10;64.20;;;;;;5012880;28;20580;-89
2022/11/29 11:01:19;;;;;;;;;;;16.20;64.30;;;;;;5013493;28;19956;-90
2022/11/29 11:03:50;;;;;;;;;;;16.20;64.30;;;;;;5030001;28;20273;-90
2022/11/29 11:06:20;;;;;;;;;;;16.30;64.30;;;;;;5007468;28;19913;-89
2022/11/29 11:08:51;;;;;;;;;;;16.30;64.30;;;;;;5005443;28;19921;-88
2022/11/29 11:11:32;;;;;;;;;;;16.40;64.30;;;;;;5009623;28;19922;-89
2022/11/29 11:14:04;;;;;;;;;;;16.50;64.30;;;;;;5010005;28;19921;-89
2022/11/29 11:16:29;;;;;;;;;;;16.50;64.30;;;;;;5008373;28;20357;-88
2022/11/29 11:18:55;;;;;;;;;;;16.60;64.20;;;;;;5009177;28;19932;-89
2022/11/29 11:21:27;;;;;;;;;;;16.70;64.30;;;;;;5010268;28;19913;-90
2022/11/29 11:24:03;;;;;;;;;;;16.80;64.30;;;;;;5010684;28;19956;-89
2022/11/29 11:26:43;;;;;;;;;;;16.90;64.30;;;;;;5008675;28;19913;-87
2022/11/29 11:29:14;;;;;;;;;;;16.90;64.20;;;;;;5011045;28;20015;-88
2022/11/29 11:31:40;;;;;;;;;;;17.00;63.90;;;;;;5010914;28;19925;-88
2022/11/29 11:34:27;;;;;;;;;;;17.00;64.00;;;;;;5027932;28;19921;-90
2022/11/29 11:37:13;;;;;;;;;;;17.00;63.90;;;;;;5031467;28;19935;-88
2022/11/29 11:39:38;;;;;;;;;;;17.00;63.80;;;;;;5030815;28;19920;-88
2022/11/29 11:44:51;;;;;;;;;;;17.00;64.00;;;;;;5043344;28;19920;-91
2022/11/29 11:47:21;;;;;;;;;;;17.00;63.80;;;;;;5011465;28;20390;-89
2022/11/29 11:49:52;;;;;;;;;;;17.00;63.80;;;;;;5029843;28;19922;-91
2022/11/29 11:52:23;;;;;;;;;;;17.00;63.70;;;;;;5011433;28;19925;-90
2022/11/29 11:55:00;;;;;;;;;;;17.10;63.70;;;;;;5031595;28;19921;-90
2022/11/29 11:57:26;;;;;;;;;;;17.10;63.70;;;;;;5028991;28;19917;-88
2022/11/29 11:59:53;;;;;;;;;;;17.10;63.80;;;;;;5028637;28;19925;-90
2022/11/29 12:02:27;;;;;;;;;;;17.20;63.70;;;;;;5010250;28;19913;-89
2022/11/29 12:04:56;;;;;;;;;;;17.20;63.80;;;;;;5012668;28;20372;-90
2022/11/29 12:07:29;;;;;;;;;;;17.20;63.90;;;;;;5012745;28;19963;-87
2022/11/29 12:09:56;;;;;;;;;;;17.20;63.90;;;;;;5032175;28;19931;-90
2022/11/29 12:12:26;;;;;;;;;;;17.10;63.70;;;;;;5030017;28;20011;-88
2022/11/29 12:15:15;;;;;;;;;;;17.20;63.60;;;;;;5026006;28;20439;-90
2022/11/29 12:17:49;;;;;;;;;;;17.10;63.50;;;;;;5032243;28;19916;-89
2022/11/29 12:20:21;;;;;;;;;;;17.00;63.40;;;;;;5051412;28;20522;-90
2022/11/29 12:22:52;;;;;;;;;;;17.00;63.50;;;;;;5049200;28;19982;-87
2022/11/29 12:25:21;;;;;;;;;;;17.00;63.20;;;;;;5048637;28;19920;-89
2022/11/29 12:27:50;;;;;;;;;;;16.90;63.30;;;;;;5049390;28;19913;-90
2022/11/29 12:30:17;;;;;;;;;;;16.80;63.30;;;;;;5032421;28;20047;-91
2022/11/29 12:33:03;;;;;;;;;;;16.70;63.50;;;;;;5049070;28;19971;-91
2022/11/29 12:35:29;;;;;;;;;;;16.70;63.70;;;;;;5009789;28;19921;-89
2022/11/29 12:38:03;;;;;;;;;;;16.70;63.80;;;;;;5009529;28;19943;-90
2022/11/29 12:40:46;;;;;;;;;;;16.70;63.80;;;;;;5011596;28;19949;-89
2022/11/29 12:43:11;;;;;;;;;;;16.60;63.90;;;;;;5014030;28;20441;-89
2022/11/29 12:46:00;;;;;;;;;;;16.60;64.00;;;;;;5019252;28;19967;-91
2022/11/29 12:48:28;;;;;;;;;;;16.60;64.20;;;;;;4991854;28;19972;-89
2022/11/29 12:50:54;;;;;;;;;;;16.60;64.20;;;;;;5025897;28;19929;-90
2022/11/29 12:53:40;;;;;;;;;;;16.60;64.20;;;;;;5024586;28;20036;-89
2022/11/29 12:56:13;;;;;;;;;;;16.60;64.20;;;;;;5012199;28;19925;-89
2022/11/29 12:58:42;;;;;;;;;;;16.50;64.20;;;;;;4990990;28;20513;-90
2022/11/29 13:01:17;;;;;;;;;;;16.50;64.10;;;;;;5024580;28;20121;-91
2022/11/29 13:04:06;;;;;;;;;;;16.40;64.10;;;;;;5024128;28;19920;-89
2022/11/29 13:06:38;;;;;;;;;;;16.40;64.10;;;;;;5017739;28;19928;-88
2022/11/29 13:09:19;;;;;;;;;;;16.30;64.00;;;;;;5008227;28;20003;-90
2022/11/29 13:11:54;;;;;;;;;;;16.30;64.00;;;;;;5012692;28;19929;-92
2022/11/29 13:14:20;;;;;;;;;;;16.30;64.00;;;;;;5030591;28;19913;-89
2022/11/29 13:16:55;;;;;;;;;;;16.20;64.00;;;;;;5013382;28;20004;-91
2022/11/29 13:19:28;;;;;;;;;;;16.20;64.00;;;;;;5012356;28;19957;-91
2022/11/29 13:21:57;;;;;;;;;;;16.10;64.10;;;;;;5011175;28;20031;-88
2022/11/29 13:24:27;;;;;;;;;;;16.10;64.10;;;;;;5029295;28;19914;-90
2022/11/29 13:26:53;;;;;;;;;;;16.00;64.10;;;;;;5028300;28;20479;-90
2022/11/29 13:29:19;;;;;;;;;;;16.00;64.00;;;;;;5014553;28;19933;-88
2022/11/29 13:31:45;;;;;;;;;;;15.90;64.20;;;;;;5032786;28;19921;-91
2022/11/29 13:34:23;;;;;;;;;;;15.90;64.20;;;;;;5024104;28;19913;-88
2022/11/29 13:37:07;;;;;;;;;;;15.90;64.30;;;;;;5052455;28;19912;-90
2022/11/29 13:39:36;;;;;;;;;;;15.90;64.50;;;;;;5033722;28;19921;-89
2022/11/29 13:42:02;;;;;;;;;;;15.90;64.70;;;;;;5033981;28;20284;-91
2022/11/29 13:44:37;;;;;;;;;;;15.90;64.60;;;;;;5031182;28;20052;-88
2022/11/29 13:47:14;;;;;;;;;;;15.90;64.60;;;;;;5013877;28;19974;-88
2022/11/29 13:49:55;;;;;;;;;;;15.90;64.50;;;;;;5033744;28;19928;-91
2022/11/29 13:52:27;;;;;;;;;;;15.90;64.50;;;;;;5044246;28;19940;-89
2022/11/29 13:55:11;;;;;;;;;;;15.90;64.80;;;;;;5013785;28;20435;-89
2022/11/29 13:57:56;;;;;;;;;;;16.00;64.70;;;;;;5028030;28;19921;-89
2022/11/29 14:00:33;;;;;;;;;;;16.00;64.80;;;;;;5025560;28;19920;-89
2022/11/29 14:03:17;;;;;;;;;;;16.00;64.90;;;;;;5051912;28;19912;-88
2022/11/29 14:05:44;;;;;;;;;;;16.00;65.10;;;;;;5015215;28;19922;-87
2022/11/29 14:08:31;;;;;;;;;;;16.00;65.00;;;;;;5010695;28;19913;-89
2022/11/29 14:11:00;;;;;;;;;;;16.00;64.70;;;;;;4995919;28;19930;-88
2022/11/29 14:13:30;;;;;;;;;;;16.00;64.70;;;;;;5011774;28;19913;-90
2022/11/29 14:15:57;;;;;;;;;;;16.00;64.70;;;;;;4997955;28;20430;-90
2022/11/29 14:18:35;;;;;;;;;;;16.10;64.60;;;;;;5010998;28;20396;-87
2022/11/29 14:21:01;;;;;;;;;;;16.10;64.50;;;;;;5009587;28;19921;-88
2022/11/29 14:23:35;;;;;;;;;;;16.10;64.40;;;;;;5012849;28;20009;-91
2022/11/29 14:26:01;;;;;;;;;;;16.10;64.40;;;;;;5032572;28;20051;-89
2022/11/29 14:28:37;;;;;;;;;;;16.00;64.40;;;;;;5050876;28;20375;-88
2022/11/29 14:31:04;;;;;;;;;;;16.10;64.40;;;;;;5033045;28;19935;-90
2022/11/29 14:33:36;;;;;;;;;;;16.10;64.50;;;;;;5033025;28;20009;-87
2022/11/29 14:36:05;;;;;;;;;;;16.10;64.40;;;;;;5034427;28;19917;-90
2022/11/29 14:38:43;;;;;;;;;;;16.10;64.40;;;;;;5032637;28;20336;-88
2022/11/29 14:41:28;;;;;;;;;;;16.20;64.40;;;;;;5035713;28;20015;-90
2022/11/29 14:44:13;;;;;;;;;;;16.20;64.30;;;;;;5033004;28;19917;-88
2022/11/29 14:46:39;;;;;;;;;;;16.20;64.40;;;;;;4990427;28;19922;-89